ADDS METAR Data INFO
IDs: Format: Raw Decoded Include TAF

Data at: 0028 UTC 15 Dec 2017

PASA 142356Z AUTO 22007KT 9SM OVC035 M07/M11 A2955 RMK AO2 SNE56 SLP007 P0000 60000 T10671106 11061 21072 52001 FZRANO $
PASA 142256Z AUTO 21009KT 9SM -SN OVC035 M07/M11 A2955 RMK AO2 SNB26 SLP007 P0000 T10671106 FZRANO $
PASA 142156Z AUTO 20012KT 10SM OVC035 M07/M10 A2955 RMK AO2 UPB2057E02B49E51SNE2057B39E49 SLP007 P0000 T10671100 FZRANO $
PASA 142056Z AUTO 20012KT 9SM -SN OVC033 M07/M11 A2954 RMK AO2 SLP006 P0000 60000 T10671106 53000 FZRANO $
PASA 141956Z AUTO 21011KT 9SM -SN OVC033 M07/M11 A2954 RMK AO2 SLP005 P0000 T10671106 FZRANO $
PASA 141856Z AUTO 22012KT 9SM -SN OVC037 M06/M09 A2954 RMK AO2 SLP006 P0000 T10611094 FZRANO $
PASA 141756Z AUTO 22013KT 9SM -SN OVC035 M06/M10 A2954 RMK AO2 SLP006 P0000 60000 T10611100 11056 21061 57001 FZRANO $
PASA 141656Z AUTO 22014KT 9SM -SN FEW023 OVC033 M06/M09 A2954 RMK AO2 SLP006 P0000 T10611089 FZRANO $
PASA 141623Z AUTO 22015KT 8SM -SN FEW008 SCT026 OVC037 M06/M09 A2954 RMK AO2 P0000 FZRANO $
PASA 141610Z AUTO 22014KT 7SM -SN FEW008 BKN026 OVC035 M06/M09 A2954 RMK AO2 P0000 FZRANO $
PASA 141556Z AUTO 23014KT 3SM -SN FEW005 OVC035 M06/M09 A2955 RMK AO2 SNB1458 SLP007 P0000 T10611089 FZRANO $
PASA 141430Z AUTO 23015KT 9SM -SN OVC029 M06/M09 A2955 RMK AO2 P0000 FZRANO $
PASA 141356Z AUTO 23015KT 9SM -SN OVC036 M06/M09 A2954 RMK AO2 SLP006 P0000 T10561094 FZRANO $
PASA 141256Z AUTO 23015KT 9SM -SN OVC036 M06/M09 A2955 RMK AO2 SNB44 SLP007 P0000 T10561094 FZRANO $
PASA 141156Z AUTO 22017KT 9SM OVC036 M06/M09 A2954 RMK AO2 SNB46E56 SLP004 P0000 60000 7//// T10561094 11044 21056 53005 FZRANO $
PASA 141056Z AUTO 24016KT 10SM OVC036 M05/M09 A2953 RMK AO2 UPB03E06SNE03B09E20 SLP003 P0000 T10501089 FZRANO $
PASA 140956Z AUTO 23017KT 9SM -SN BKN027 OVC032 M06/M09 A2952 RMK AO2 SNE0857B15 SLP999 P0000 T10561089 FZRANO $
PASA 140856Z AUTO 23017KT 9SM -SN OVC036 M06/M09 A2952 RMK AO2 SNB29 SLPNO P0000 60000 T10561089 410281056 53006 FZRANO $
PASA 140756Z AUTO 23016KT 10SM OVC034 M06/M09 A2951 RMK AO2 SNE02B22E33 SLPNO P0000 T10561089 FZRANO $
PASA 140727Z AUTO 25020KT 9SM -SN SCT029 OVC034 M05/M09 A2951 RMK AO2 SNE02B22 P0000 FZRANO $
PASA 140656Z AUTO 23017KT 9SM -SN BKN029 OVC035 M06/M09 A2951 RMK AO2 SNB50 SLPNO P0000 T10561094 FZRANO $
PASA 140556Z AUTO 24016KT 10SM OVC034 M05/M09 A2950 RMK AO2 SLPNO 60000 T10501094 11028 21050 51017 FZRANO $
PASA 140456Z AUTO 26017KT 10SM OVC030 M04/M09 A2949 RMK AO2 UPB42E46SNB25E42 SLPNO P0000 T10441089 FZRANO $
PASA 140356Z AUTO 25021KT 10SM FEW034 OVC090 M04/M09 A2947 RMK AO2 PK WND 25026/0353 UPB36E40SNB26E36 SLPNO P0000 T10441089 FZRANO $
PASA 140326Z AUTO 26023KT 9SM -SN BKN031 OVC090 M04/M08 A2946 RMK AO2 PK WND 26026/0326 SNB26 P0000 FZRANO $
PASA 140256Z AUTO 26021KT 10SM BKN029 BKN036 OVC090 M04/M08 A2945 RMK AO2 PK WND 27026/0248 UPB35E37SNB26E35 SLPNO P0000 60000 T10391083 53006 FZRANO $
PASA 140228Z AUTO 27022KT 9SM -SN BKN028 OVC090 M04/M08 A2945 RMK AO2 SNB26 P0000 FZRANO $
PASA 140156Z AUTO 27021KT 10SM SCT024 SCT030 OVC090 M04/M08 A2944 RMK AO2 PK WND 27028/0125 UPE47 SLPNO P0000 T10391078 FZRANO $
PASA 140141Z AUTO 27020KT 10SM UP BKN024 BKN030 OVC090 M03/M07 A2944 RMK AO2 PK WND 27028/0125 P0000 FZRANO $
PASA 140056Z AUTO 27022G26KT 7SM UP SCT022 SCT030 OVC036 M03/M07 A2944 RMK AO2 PK WND 27028/0038 SNB00E10 SLPNO P0000 T10331067 FZRANO $
PASA 140036Z AUTO 27023KT 6SM UP FEW020 BKN030 OVC036 M03/M07 A2943 RMK AO2 PK WND 26028/0030 SNB00E10 P0000 FZRANO $
PASA 132256Z AUTO 26020KT 10SM BKN024 BKN029 OVC035 M03/M06 A2942 RMK AO2 SLPNO T10281061 FZRANO $
PASA 132246Z AUTO 27020KT 10SM BKN024 BKN033 OVC090 M03/M06 A2942 RMK AO2 FZRANO $
PASA 132206Z AUTO 26017KT 10SM SCT025 OVC033 M03/M07 A2942 RMK AO2 FZRANO $
PASA 132156Z AUTO 26018KT 10SM BKN023 OVC031 M03/M07 A2942 RMK AO2 SLPNO T10281067 FZRANO $
PASA 132152Z AUTO 26017KT 10SM BKN023 OVC031 M03/M07 A2942 RMK AO2 FZRANO $
PASA 132005Z AUTO 26017KT 10SM SCT027 OVC090 M04/M07 A2941 RMK AO2 FZRANO $
PASA 131956Z AUTO 26018KT 10SM BKN027 OVC090 M04/M06 A2941 RMK AO2 UPB26E44SNB16E26 SLP961 P0000 T10391061 FZRANO $
PASA 131856Z AUTO 27018KT 10SM OVC017 M03/M06 A2940 RMK AO2 UPE1758B49E56SNB40E49 SLP959 P0000 T10331056 FZRANO $
PASA 131756Z AUTO 27017KT 10SM UP OVC017 M03/M05 A2939 RMK AO2 SLP954 P0000 60000 T10331050 11028 21033 53004 FZRANO $
PASA 131718Z AUTO 27018KT 10SM UP OVC015 M03/M04 A2937 RMK AO2 P0000 FZRANO $
PASA 131703Z AUTO 27018KT 10SM UP OVC013 M03/M04 A2937 RMK AO2 P0000 FZRANO $
PASA 131656Z AUTO 27019KT 9SM UP OVC015 M03/M04 A2937 RMK AO2 SLP948 P0000 T10331044 FZRANO $
PASA 131643Z AUTO 27018KT 10SM UP BKN013 M03/M04 A2937 RMK AO2 P0000 FZRANO $
PASA 131549Z AUTO 26018KT 9SM UP BKN009 BKN014 OVC046 M03/M04 A2937 RMK AO2 CIG 008V012 P0000 FZRANO $
PASA 131536Z AUTO 26018KT 10SM UP BKN011 OVC017 M03/M04 A2937 RMK AO2 P0000 FZRANO $
PASA 131525Z AUTO 27016KT 10SM UP SCT009 BKN016 OVC045 M03/M04 A2938 RMK AO2 P0000 FZRANO $
PASA 131456Z AUTO 27017KT 10SM UP OVC011 M03/M03 A2938 RMK AO2 SLP950 P0000 60000 T10281033 56002 FZRANO $
PASA 131256Z AUTO 27017KT 4SM -SN BR BKN007 OVC012 M03/M03 A2938 RMK AO2 SLP951 P0000 T10281033 FZRANO $
PASA 131233Z AUTO 27017KT 2SM -SN BR BKN007 OVC014 M03/M03 A2938 RMK AO2 CIG 004V009 P0000 FZRANO $